<?xml version="1.0" encoding="UTF-8" standalone="no" ?>
<gpx xmlns="http://www.topografix.com/GPX/1/1" creator="MapSource 6.11.6" version="1.1" xmlns:xsi="http://www.w3.org/2001/XMLSchema-instance" xsi:schemaLocation="http://www.topografix.com/GPX/1/1 http://www.topografix.com/GPX/1/1/gpx.xsd">

  <metadata>
    <link href="http://www.garmin.com">
      <text>Garmin International</text>
    </link>
    <time>2009-11-04T17:36:40Z</time>
    <bounds maxlat="50.667978" maxlon="6.403313" minlat="50.654622" minlon="6.367858"/>
  </metadata>

  <trk>
    <name>Windraeder</name>
    <extensions>
      <gpxx:TrackExtension xmlns:gpxx="http://www.garmin.com/xmlschemas/GpxExtensions/v3" xmlns:xsi="http://www.w3.org/2001/XMLSchema-instance" xsi:schemaLocation="http://www.garmin.com/xmlschemas/GpxExtensions/v3 http://www.garmin.com/xmlschemas/GpxExtensions/v3/GpxExtensionsv3.xsd">
        <gpxx:DisplayColor>White</gpxx:DisplayColor>
      </gpxx:TrackExtension>
    </extensions>
    <trkseg>
      <trkpt lat="50.657554" lon="6.395959"/>
      <trkpt lat="50.657689" lon="6.395704"/>
      <trkpt lat="50.657716" lon="6.395704"/>
      <trkpt lat="50.657878" lon="6.395449"/>
      <trkpt lat="50.658093" lon="6.395236"/>
      <trkpt lat="50.658093" lon="6.395193"/>
      <trkpt lat="50.658255" lon="6.394981"/>
      <trkpt lat="50.658524" lon="6.394683"/>
      <trkpt lat="50.658686" lon="6.394386"/>
      <trkpt lat="50.658740" lon="6.394301"/>
      <trkpt lat="50.658956" lon="6.394258"/>
      <trkpt lat="50.658982" lon="6.394258"/>
      <trkpt lat="50.659198" lon="6.394088"/>
      <trkpt lat="50.659980" lon="6.393365"/>
      <trkpt lat="50.660330" lon="6.393280"/>
      <trkpt lat="50.660030" lon="6.392899">
        <ele>478.873901</ele>
        <time>2008-07-08T22:43:33Z</time>
      </trkpt>
      <trkpt lat="50.659715" lon="6.392761">
        <ele>478.393188</ele>
        <time>2008-07-08T22:43:08Z</time>
      </trkpt>
      <trkpt lat="50.659422" lon="6.392568">
        <ele>478.393188</ele>
        <time>2008-07-08T22:42:44Z</time>
      </trkpt>
      <trkpt lat="50.659127" lon="6.392425">
        <ele>477.912476</ele>
        <time>2008-07-08T22:42:20Z</time>
      </trkpt>
      <trkpt lat="50.658848" lon="6.392172">
        <ele>477.912476</ele>
        <time>2008-07-08T22:41:56Z</time>
      </trkpt>
      <trkpt lat="50.658759" lon="6.392062">
        <ele>477.912476</ele>
        <time>2008-07-08T22:41:47Z</time>
      </trkpt>
      <trkpt lat="50.658527" lon="6.391654">
        <ele>478.873901</ele>
        <time>2008-07-08T22:41:20Z</time>
      </trkpt>
      <trkpt lat="50.658333" lon="6.391094">
        <ele>478.873901</ele>
        <time>2008-07-08T22:40:50Z</time>
      </trkpt>
      <trkpt lat="50.658260" lon="6.390746">
        <ele>478.873901</ele>
        <time>2008-07-08T22:40:32Z</time>
      </trkpt>
      <trkpt lat="50.658135" lon="6.390265">
        <ele>477.912476</ele>
        <time>2008-07-08T22:40:07Z</time>
      </trkpt>
      <trkpt lat="50.657875" lon="6.388891">
        <ele>477.431885</ele>
        <time>2008-07-08T22:38:57Z</time>
      </trkpt>
      <trkpt lat="50.657600" lon="6.387767">
        <ele>476.951294</ele>
        <time>2008-07-08T22:37:59Z</time>
      </trkpt>
      <trkpt lat="50.657530" lon="6.387217">
        <ele>476.470581</ele>
        <time>2008-07-08T22:37:32Z</time>
      </trkpt>
      <trkpt lat="50.657518" lon="6.386814">
        <ele>475.989868</ele>
        <time>2008-07-08T22:37:12Z</time>
      </trkpt>
      <trkpt lat="50.657556" lon="6.385592">
        <ele>475.989868</ele>
        <time>2008-07-08T22:36:13Z</time>
      </trkpt>
      <trkpt lat="50.657548" lon="6.384672">
        <ele>475.989868</ele>
        <time>2008-07-08T22:35:29Z</time>
      </trkpt>
      <trkpt lat="50.657579" lon="6.384147">
        <ele>475.509277</ele>
        <time>2008-07-08T22:35:03Z</time>
      </trkpt>
      <trkpt lat="50.657700" lon="6.383050">
        <ele>474.067261</ele>
        <time>2008-07-08T22:34:09Z</time>
      </trkpt>
      <trkpt lat="50.657793" lon="6.382611">
        <ele>475.028687</ele>
        <time>2008-07-08T22:33:47Z</time>
      </trkpt>
      <trkpt lat="50.657938" lon="6.382346">
        <ele>474.067261</ele>
        <time>2008-07-08T22:33:30Z</time>
      </trkpt>
      <trkpt lat="50.658129" lon="6.382131">
        <ele>472.625366</ele>
        <time>2008-07-08T22:33:12Z</time>
      </trkpt>
      <trkpt lat="50.658208" lon="6.381975">
        <ele>472.144653</ele>
        <time>2008-07-08T22:33:02Z</time>
      </trkpt>
      <trkpt lat="50.658500" lon="6.381606">
        <ele>470.221924</ele>
        <time>2008-07-08T22:32:34Z</time>
      </trkpt>
      <trkpt lat="50.658924" lon="6.380932">
        <ele>466.857422</ele>
        <time>2008-07-08T22:31:48Z</time>
      </trkpt>
      <trkpt lat="50.659035" lon="6.380781">
        <ele>465.896118</ele>
        <time>2008-07-08T22:31:36Z</time>
      </trkpt>
      <trkpt lat="50.659251" lon="6.380558">
        <ele>465.896118</ele>
        <time>2008-07-08T22:31:17Z</time>
      </trkpt>
      <trkpt lat="50.659484" lon="6.380471">
        <ele>464.934814</ele>
        <time>2008-07-08T22:30:59Z</time>
      </trkpt>
      <trkpt lat="50.659743" lon="6.380494">
        <ele>463.492798</ele>
        <time>2008-07-08T22:30:39Z</time>
      </trkpt>
      <trkpt lat="50.659969" lon="6.380442">
        <ele>461.089478</ele>
        <time>2008-07-08T22:30:21Z</time>
      </trkpt>
      <trkpt lat="50.660075" lon="6.380407">
        <ele>459.166870</ele>
        <time>2008-07-08T22:30:13Z</time>
      </trkpt>
      <trkpt lat="50.660467" lon="6.380222">
        <ele>456.763550</ele>
        <time>2008-07-08T22:29:42Z</time>
      </trkpt>
      <trkpt lat="50.660611" lon="6.380097">
        <ele>455.802246</ele>
        <time>2008-07-08T22:29:29Z</time>
      </trkpt>
      <trkpt lat="50.660934" lon="6.379731">
        <ele>452.918213</ele>
        <time>2008-07-08T22:28:59Z</time>
      </trkpt>
      <trkpt lat="50.661010" lon="6.379570">
        <ele>451.476318</ele>
        <time>2008-07-08T22:28:49Z</time>
      </trkpt>
      <trkpt lat="50.661102" lon="6.379179">
        <ele>449.072998</ele>
        <time>2008-07-08T22:28:29Z</time>
      </trkpt>
      <trkpt lat="50.661173" lon="6.378651">
        <ele>445.708374</ele>
        <time>2008-07-08T22:28:03Z</time>
      </trkpt>
      <trkpt lat="50.661204" lon="6.377951">
        <ele>441.382446</ele>
        <time>2008-07-08T22:27:29Z</time>
      </trkpt>
      <trkpt lat="50.661175" lon="6.377559">
        <ele>439.459717</ele>
        <time>2008-07-08T22:27:10Z</time>
      </trkpt>
      <trkpt lat="50.661137" lon="6.376587">
        <ele>437.056519</ele>
        <time>2008-07-08T22:26:23Z</time>
      </trkpt>
      <trkpt lat="50.661036" lon="6.376169">
        <ele>436.575928</ele>
        <time>2008-07-08T22:26:01Z</time>
      </trkpt>
      <trkpt lat="50.660936" lon="6.375711">
        <ele>435.133911</ele>
        <time>2008-07-08T22:25:38Z</time>
      </trkpt>
      <trkpt lat="50.660685" lon="6.375169">
        <ele>434.172607</ele>
        <time>2008-07-08T22:25:05Z</time>
      </trkpt>
      <trkpt lat="50.660687" lon="6.374982">
        <ele>433.211304</ele>
        <time>2008-07-08T22:24:56Z</time>
      </trkpt>
      <trkpt lat="50.660771" lon="6.374794">
        <ele>433.211304</ele>
        <time>2008-07-08T22:24:45Z</time>
      </trkpt>
      <trkpt lat="50.660892" lon="6.374701">
        <ele>433.691895</ele>
        <time>2008-07-08T22:24:35Z</time>
      </trkpt>
      <trkpt lat="50.661008" lon="6.374726">
        <ele>434.172607</ele>
        <time>2008-07-08T22:24:26Z</time>
      </trkpt>
      <trkpt lat="50.661174" lon="6.374842">
        <ele>433.691895</ele>
        <time>2008-07-08T22:24:12Z</time>
      </trkpt>
      <trkpt lat="50.661185" lon="6.375003">
        <ele>433.211304</ele>
        <time>2008-07-08T22:24:04Z</time>
      </trkpt>
      <trkpt lat="50.661479" lon="6.375241">
        <ele>430.807983</ele>
        <time>2008-07-08T22:23:39Z</time>
      </trkpt>
      <trkpt lat="50.661586" lon="6.375536">
        <ele>428.885376</ele>
        <time>2008-07-08T22:23:22Z</time>
      </trkpt>
      <trkpt lat="50.661672" lon="6.375658">
        <ele>427.443359</ele>
        <time>2008-07-08T22:23:14Z</time>
      </trkpt>
      <trkpt lat="50.661908" lon="6.375921">
        <ele>425.520752</ele>
        <time>2008-07-08T22:22:51Z</time>
      </trkpt>
      <trkpt lat="50.662092" lon="6.376170">
        <ele>424.559448</ele>
        <time>2008-07-08T22:22:33Z</time>
      </trkpt>
      <trkpt lat="50.662195" lon="6.376222">
        <ele>424.078735</ele>
        <time>2008-07-08T22:22:25Z</time>
      </trkpt>
      <trkpt lat="50.662481" lon="6.376445">
        <ele>423.117432</ele>
        <time>2008-07-08T22:22:00Z</time>
      </trkpt>
      <trkpt lat="50.662735" lon="6.376687">
        <ele>422.156006</ele>
        <time>2008-07-08T22:21:38Z</time>
      </trkpt>
      <trkpt lat="50.662825" lon="6.376828">
        <ele>422.156006</ele>
        <time>2008-07-08T22:21:28Z</time>
      </trkpt>
      <trkpt lat="50.663033" lon="6.377073">
        <ele>422.636719</ele>
        <time>2008-07-08T22:21:08Z</time>
      </trkpt>
      <trkpt lat="50.663059" lon="6.377271">
        <ele>422.636719</ele>
        <time>2008-07-08T22:20:58Z</time>
      </trkpt>
      <trkpt lat="50.663231" lon="6.377465">
        <ele>422.636719</ele>
        <time>2008-07-08T22:20:42Z</time>
      </trkpt>
      <trkpt lat="50.663423" lon="6.377590">
        <ele>422.156006</ele>
        <time>2008-07-08T22:20:26Z</time>
      </trkpt>
      <trkpt lat="50.663867" lon="6.377978">
        <ele>423.598022</ele>
        <time>2008-07-08T22:19:48Z</time>
      </trkpt>
      <trkpt lat="50.664176" lon="6.378315">
        <ele>426.001343</ele>
        <time>2008-07-08T22:19:19Z</time>
      </trkpt>
      <trkpt lat="50.664361" lon="6.378411">
        <ele>426.482056</ele>
        <time>2008-07-08T22:19:04Z</time>
      </trkpt>
      <trkpt lat="50.664678" lon="6.378448">
        <ele>427.923950</ele>
        <time>2008-07-08T22:18:40Z</time>
      </trkpt>
      <trkpt lat="50.664813" lon="6.378421">
        <ele>428.885376</ele>
        <time>2008-07-08T22:18:29Z</time>
      </trkpt>
      <trkpt lat="50.665177" lon="6.378300">
        <ele>429.846558</ele>
        <time>2008-07-08T22:18:01Z</time>
      </trkpt>
      <trkpt lat="50.665397" lon="6.378148">
        <ele>429.846558</ele>
        <time>2008-07-08T22:17:43Z</time>
      </trkpt>
      <trkpt lat="50.666048" lon="6.377438">
        <ele>431.769165</ele>
        <time>2008-07-08T22:16:42Z</time>
      </trkpt>
      <trkpt lat="50.666189" lon="6.377254">
        <ele>431.769165</ele>
        <time>2008-07-08T22:16:28Z</time>
      </trkpt>
      <trkpt lat="50.666406" lon="6.376904">
        <ele>431.288574</ele>
        <time>2008-07-08T22:16:05Z</time>
      </trkpt>
      <trkpt lat="50.666496" lon="6.376835">
        <ele>431.769165</ele>
        <time>2008-07-08T22:15:57Z</time>
      </trkpt>
      <trkpt lat="50.666591" lon="6.376811">
        <ele>431.769165</ele>
        <time>2008-07-08T22:15:50Z</time>
      </trkpt>
      <trkpt lat="50.667253" lon="6.376801">
        <ele>431.769165</ele>
        <time>2008-07-08T22:14:59Z</time>
      </trkpt>
      <trkpt lat="50.667364" lon="6.376735">
        <ele>431.769165</ele>
        <time>2008-07-08T22:14:50Z</time>
      </trkpt>
      <trkpt lat="50.667624" lon="6.376636">
        <ele>432.730713</ele>
        <time>2008-07-08T22:14:30Z</time>
      </trkpt>
      <trkpt lat="50.667756" lon="6.376610">
        <ele>433.211304</ele>
        <time>2008-07-08T22:14:19Z</time>
      </trkpt>
      <trkpt lat="50.667869" lon="6.376571">
        <ele>434.172607</ele>
        <time>2008-07-08T22:14:11Z</time>
      </trkpt>
      <trkpt lat="50.667978" lon="6.376480">
        <ele>434.653320</ele>
        <time>2008-07-08T22:14:01Z</time>
      </trkpt>
      <trkpt lat="50.667959" lon="6.376361">
        <ele>435.614502</ele>
        <time>2008-07-08T22:13:55Z</time>
      </trkpt>
      <trkpt lat="50.667448" lon="6.375788">
        <ele>441.382446</ele>
        <time>2008-07-08T22:13:07Z</time>
      </trkpt>
      <trkpt lat="50.667174" lon="6.375593">
        <ele>444.747070</ele>
        <time>2008-07-08T22:12:45Z</time>
      </trkpt>
      <trkpt lat="50.666971" lon="6.375376">
        <ele>446.669678</ele>
        <time>2008-07-08T22:12:26Z</time>
      </trkpt>
      <trkpt lat="50.666595" lon="6.375026">
        <ele>453.398926</ele>
        <time>2008-07-08T22:11:52Z</time>
      </trkpt>
      <trkpt lat="50.666398" lon="6.374926">
        <ele>456.282959</ele>
        <time>2008-07-08T22:11:37Z</time>
      </trkpt>
      <trkpt lat="50.666301" lon="6.374953">
        <ele>456.282959</ele>
        <time>2008-07-08T22:11:29Z</time>
      </trkpt>
      <trkpt lat="50.666245" lon="6.375170"/>
      <trkpt lat="50.666110" lon="6.375170"/>
      <trkpt lat="50.666057" lon="6.374618"/>
      <trkpt lat="50.665625" lon="6.374107"/>
      <trkpt lat="50.665221" lon="6.373725"/>
      <trkpt lat="50.664952" lon="6.373427"/>
      <trkpt lat="50.664628" lon="6.373130"/>
      <trkpt lat="50.664116" lon="6.372577"/>
      <trkpt lat="50.663658" lon="6.372237"/>
      <trkpt lat="50.662957" lon="6.371429"/>
      <trkpt lat="50.662392" lon="6.371047"/>
      <trkpt lat="50.661987" lon="6.370451"/>
      <trkpt lat="50.661287" lon="6.369899"/>
      <trkpt lat="50.660801" lon="6.369346"/>
      <trkpt lat="50.660343" lon="6.368751"/>
      <trkpt lat="50.660020" lon="6.368581"/>
      <trkpt lat="50.659481" lon="6.367858"/>
      <trkpt lat="50.659292" lon="6.368028"/>
      <trkpt lat="50.658915" lon="6.368368"/>
      <trkpt lat="50.658672" lon="6.368708"/>
      <trkpt lat="50.658538" lon="6.368836"/>
      <trkpt lat="50.658322" lon="6.369219"/>
      <trkpt lat="50.658295" lon="6.369261"/>
      <trkpt lat="50.658160" lon="6.369686"/>
      <trkpt lat="50.657864" lon="6.370366"/>
      <trkpt lat="50.657541" lon="6.371047"/>
      <trkpt lat="50.657244" lon="6.371727"/>
      <trkpt lat="50.656867" lon="6.372535"/>
      <trkpt lat="50.656516" lon="6.373130"/>
      <trkpt lat="50.656328" lon="6.373597"/>
      <trkpt lat="50.656085" lon="6.374107"/>
      <trkpt lat="50.656058" lon="6.374235"/>
      <trkpt lat="50.655789" lon="6.374915"/>
      <trkpt lat="50.655762" lon="6.375000"/>
      <trkpt lat="50.655546" lon="6.375425"/>
      <trkpt lat="50.655519" lon="6.375510"/>
      <trkpt lat="50.655385" lon="6.375850"/>
      <trkpt lat="50.655358" lon="6.375936"/>
      <trkpt lat="50.655142" lon="6.376531"/>
      <trkpt lat="50.655142" lon="6.376871"/>
      <trkpt lat="50.655142" lon="6.376828"/>
      <trkpt lat="50.655304" lon="6.377193">
        <ele>503.868164</ele>
        <time>2008-07-08T21:48:12Z</time>
      </trkpt>
      <trkpt lat="50.655290" lon="6.377335">
        <ele>503.868164</ele>
        <time>2008-07-08T21:48:05Z</time>
      </trkpt>
      <trkpt lat="50.655365" lon="6.377856">
        <ele>503.868164</ele>
        <time>2008-07-08T21:47:40Z</time>
      </trkpt>
      <trkpt lat="50.655437" lon="6.378575">
        <ele>503.868164</ele>
        <time>2008-07-08T21:47:04Z</time>
      </trkpt>
      <trkpt lat="50.655601" lon="6.379807">
        <ele>503.387451</ele>
        <time>2008-07-08T21:46:03Z</time>
      </trkpt>
      <trkpt lat="50.655513" lon="6.380402">
        <ele>502.426147</ele>
        <time>2008-07-08T21:45:34Z</time>
      </trkpt>
      <trkpt lat="50.655093" lon="6.382380">
        <ele>497.138916</ele>
        <time>2008-07-08T21:43:53Z</time>
      </trkpt>
      <trkpt lat="50.654804" lon="6.383967">
        <ele>497.138916</ele>
        <time>2008-07-08T21:42:33Z</time>
      </trkpt>
      <trkpt lat="50.654664" lon="6.386755">
        <ele>501.464844</ele>
        <time>2008-07-08T21:40:18Z</time>
      </trkpt>
      <trkpt lat="50.654622" lon="6.387757">
        <ele>504.829468</ele>
        <time>2008-07-08T21:39:29Z</time>
      </trkpt>
      <trkpt lat="50.655298" lon="6.390506">
        <ele>508.194092</ele>
        <time>2008-07-08T21:37:06Z</time>
      </trkpt>
      <trkpt lat="50.655514" lon="6.391268">
        <ele>508.674683</ele>
        <time>2008-07-08T21:36:26Z</time>
      </trkpt>
      <trkpt lat="50.656227" lon="6.392670">
        <ele>508.194092</ele>
        <time>2008-07-08T21:34:59Z</time>
      </trkpt>
      <trkpt lat="50.657457" lon="6.395018">
        <ele>507.232788</ele>
        <time>2008-07-08T21:32:32Z</time>
      </trkpt>
      <trkpt lat="50.657669" lon="6.395476">
        <ele>506.752075</ele>
        <time>2008-07-08T21:32:04Z</time>
      </trkpt>
      <trkpt lat="50.657678" lon="6.395645">
        <ele>506.271484</ele>
        <time>2008-07-08T21:31:56Z</time>
      </trkpt>
      <trkpt lat="50.657716" lon="6.395595"/>
      <trkpt lat="50.657500" lon="6.395978"/>
      <trkpt lat="50.657231" lon="6.396275"/>
      <trkpt lat="50.656907" lon="6.396700"/>
      <trkpt lat="50.656719" lon="6.396955"/>
      <trkpt lat="50.656422" lon="6.397380"/>
      <trkpt lat="50.656234" lon="6.397721"/>
      <trkpt lat="50.656099" lon="6.398146"/>
      <trkpt lat="50.656260" lon="6.398443"/>
      <trkpt lat="50.656476" lon="6.398656"/>
      <trkpt lat="50.656503" lon="6.398656"/>
      <trkpt lat="50.656853" lon="6.399123"/>
      <trkpt lat="50.657042" lon="6.399378"/>
      <trkpt lat="50.657177" lon="6.399591"/>
      <trkpt lat="50.657392" lon="6.399889"/>
      <trkpt lat="50.657635" lon="6.400399"/>
      <trkpt lat="50.657770" lon="6.400611"/>
      <trkpt lat="50.658012" lon="6.400952"/>
      <trkpt lat="50.658147" lon="6.401121"/>
      <trkpt lat="50.658416" lon="6.400654"/>
      <trkpt lat="50.658578" lon="6.400399"/>
      <trkpt lat="50.658740" lon="6.400441"/>
      <trkpt lat="50.658821" lon="6.400422"/>
      <trkpt lat="50.659117" lon="6.400805"/>
      <trkpt lat="50.659441" lon="6.401018"/>
      <trkpt lat="50.659683" lon="6.401315"/>
      <trkpt lat="50.659710" lon="6.401443"/>
      <trkpt lat="50.659980" lon="6.401825"/>
      <trkpt lat="50.660007" lon="6.401868"/>
      <trkpt lat="50.660303" lon="6.402293"/>
      <trkpt lat="50.660303" lon="6.402336"/>
      <trkpt lat="50.660572" lon="6.402633"/>
      <trkpt lat="50.660815" lon="6.403101"/>
      <trkpt lat="50.661058" lon="6.403271"/>
      <trkpt lat="50.661192" lon="6.403313"/>
      <trkpt lat="50.661219" lon="6.403016"/>
      <trkpt lat="50.661219" lon="6.402591"/>
      <trkpt lat="50.661246" lon="6.402208"/>
      <trkpt lat="50.661246" lon="6.402123"/>
      <trkpt lat="50.661300" lon="6.401740"/>
    </trkseg>
  </trk>

</gpx>
